createdAt,value
2023-02-08T00:00:10.885Z,59.84
2023-02-08T00:02:13.013Z,59.95
2023-02-08T00:04:15.064Z,60.29
2023-02-08T00:06:17.381Z,60.32
2023-02-08T00:08:19.449Z,59.99
2023-02-08T00:10:21.594Z,60.60
2023-02-08T00:12:23.937Z,60.21
2023-02-08T00:14:26.004Z,60.42
2023-02-08T00:16:28.061Z,60.11
2023-02-08T00:18:30.265Z,60.49
2023-02-08T00:20:32.415Z,60.18
2023-02-08T00:22:34.557Z,59.85
2023-02-08T00:24:36.521Z,60.02
2023-02-08T00:26:38.664Z,60.31
2023-02-08T00:28:40.725Z,60.40
2023-02-08T00:30:43.639Z,60.54
2023-02-08T00:32:45.689Z,60.15
2023-02-08T00:34:47.775Z,60.20
2023-02-08T00:36:49.812Z,60.29
2023-02-08T00:38:51.924Z,60.39
2023-02-08T00:40:54.002Z,60.54
2023-02-08T00:42:56.093Z,60.21
2023-02-08T00:44:58.625Z,60.60
2023-02-08T00:47:00.668Z,60.61
2023-02-08T00:49:02.905Z,60.56
2023-02-08T00:51:08.945Z,60.23
2023-02-08T00:53:10.981Z,60.28
2023-02-08T00:55:12.962Z,60.40
2023-02-08T00:57:15.462Z,59.85
2023-02-08T00:59:17.482Z,59.62
2023-02-08T01:01:19.582Z,59.48
2023-02-08T01:03:23.032Z,59.57
2023-02-08T01:05:25.025Z,59.68
2023-02-08T01:07:27.030Z,59.61
2023-02-08T01:09:29.025Z,59.15
2023-02-08T01:11:31.108Z,59.26
2023-02-08T01:13:33.127Z,58.93
2023-02-08T01:15:35.159Z,59.58
2023-02-08T01:17:37.194Z,59.41
2023-02-08T01:19:41.118Z,59.46
2023-02-08T01:21:44.397Z,59.38
2023-02-08T01:23:46.596Z,59.31
2023-02-08T01:25:48.620Z,59.30
2023-02-08T01:27:50.633Z,59.37
2023-02-08T01:29:52.959Z,59.43
2023-02-08T01:31:54.972Z,59.00
2023-02-08T01:33:58.399Z,59.10
2023-02-08T01:36:00.436Z,59.28
2023-02-08T01:38:02.467Z,59.68
2023-02-08T01:40:05.024Z,59.66
2023-02-08T01:42:07.025Z,59.85
2023-02-08T01:44:12.528Z,59.81
2023-02-08T01:46:14.435Z,59.82
2023-02-08T01:48:23.356Z,60.25
2023-02-08T01:50:32.254Z,60.22
2023-02-08T01:52:34.351Z,60.02
2023-02-08T01:54:43.359Z,60.78
2023-02-08T01:56:47.346Z,60.03
2023-02-08T01:58:55.012Z,60.17
2023-02-08T02:00:57.010Z,60.10
2023-02-08T02:03:00.984Z,60.04
2023-02-08T02:05:03.473Z,60.16
2023-02-08T02:07:06.418Z,60.54
2023-02-08T02:09:17.992Z,60.84
2023-02-08T02:11:20.714Z,60.45
2023-02-08T02:13:25.146Z,60.46
2023-02-08T02:15:27.168Z,60.51
2023-02-08T02:17:30.304Z,60.78
2023-02-08T02:19:35.734Z,60.72
2023-02-08T02:21:43.966Z,61.50
2023-02-08T02:23:50.399Z,61.09
2023-02-08T02:25:55.337Z,61.51
2023-02-08T02:28:03.595Z,61.26
2023-02-08T02:30:12.734Z,61.60
2023-02-08T02:32:24.183Z,61.51
2023-02-08T02:34:32.266Z,61.56
2023-02-08T02:36:40.504Z,61.64
2023-02-08T02:38:49.361Z,61.67
2023-02-08T02:41:06.474Z,61.73
2023-02-08T02:43:16.253Z,61.65
2023-02-08T02:45:27.308Z,61.98
2023-02-08T02:47:37.302Z,62.02
2023-02-08T02:49:51.523Z,61.81
2023-02-08T02:52:02.220Z,62.00
2023-02-08T02:54:11.071Z,61.97
2023-02-08T02:56:18.482Z,62.33
2023-02-08T02:58:24.048Z,62.04
2023-02-08T03:00:28.938Z,62.18
2023-02-08T03:02:30.904Z,62.37
2023-02-08T03:04:33.667Z,62.36
2023-02-08T03:06:46.874Z,62.45
2023-02-08T03:08:55.615Z,62.35
2023-02-08T03:11:00.974Z,62.65
2023-02-08T03:13:15.880Z,62.76
2023-02-08T03:15:22.481Z,63.09
2023-02-08T03:17:34.234Z,63.26
2023-02-08T03:19:43.921Z,62.89
2023-02-08T03:21:56.938Z,63.63
2023-02-08T03:24:05.092Z,63.60
2023-02-08T03:26:09.918Z,63.29
2023-02-08T03:28:20.742Z,63.60
2023-02-08T03:30:29.127Z,63.02
2023-02-08T03:32:40.638Z,63.48
2023-02-08T03:34:49.395Z,63.58
2023-02-08T03:36:58.385Z,63.73
2023-02-08T03:39:03.510Z,64.01
2023-02-08T03:41:10.344Z,63.80
2023-02-08T03:43:18.253Z,64.39
2023-02-08T03:45:27.208Z,64.12
2023-02-08T03:47:35.408Z,64.23
2023-02-08T03:49:39.521Z,63.70
2023-02-08T03:51:43.847Z,63.46
2023-02-08T03:53:46.887Z,63.80
2023-02-08T03:55:53.355Z,63.77
2023-02-08T03:57:59.934Z,63.38
2023-02-08T04:00:07.301Z,63.65
2023-02-08T04:02:14.268Z,63.30
2023-02-08T04:04:18.970Z,63.58
2023-02-08T04:06:22.169Z,63.96
2023-02-08T04:08:26.243Z,63.47
2023-02-08T04:10:28.190Z,63.41
2023-02-08T04:12:30.807Z,63.53
2023-02-08T04:14:32.736Z,63.74
2023-02-08T04:16:34.720Z,63.97
2023-02-08T04:18:36.676Z,64.05
2023-02-08T04:20:39.165Z,63.79
2023-02-08T04:22:41.373Z,64.06
2023-02-08T04:24:43.376Z,64.47
2023-02-08T04:26:45.396Z,64.92
2023-02-08T04:28:47.444Z,65.12
2023-02-08T04:30:49.771Z,65.54
2023-02-08T04:32:51.719Z,65.28
2023-02-08T04:34:53.734Z,65.33
2023-02-08T04:36:55.736Z,65.94
2023-02-08T04:38:58.824Z,65.68
2023-02-08T04:41:00.852Z,66.26
2023-02-08T04:43:02.887Z,66.30
2023-02-08T04:45:05.347Z,66.14
2023-02-08T04:47:07.296Z,66.74
2023-02-08T04:49:09.262Z,66.25
2023-02-08T04:51:11.279Z,66.68
2023-02-08T04:53:13.251Z,66.51
2023-02-08T04:55:15.359Z,67.01
2023-02-08T04:57:17.341Z,66.89
2023-02-08T04:59:20.011Z,67.21
2023-02-08T05:01:22.019Z,66.71
2023-02-08T05:03:24.012Z,66.61
2023-02-08T05:05:27.838Z,66.33
2023-02-08T05:07:29.756Z,66.12
2023-02-08T05:09:31.797Z,66.35
2023-02-08T05:11:34.225Z,66.03
2023-02-08T05:13:36.171Z,65.93
2023-02-08T05:15:38.108Z,66.48
2023-02-08T05:17:40.412Z,65.92
2023-02-08T05:19:42.478Z,65.12
2023-02-08T05:21:44.427Z,64.99
2023-02-08T05:23:46.966Z,64.28
2023-02-08T05:25:49.033Z,64.26
2023-02-08T05:27:51.132Z,64.21
2023-02-08T05:29:53.092Z,64.51
2023-02-08T05:31:55.157Z,64.00
2023-02-08T05:33:57.112Z,63.98
2023-02-08T05:35:59.111Z,64.02
2023-02-08T05:38:01.052Z,63.67
2023-02-08T05:40:03.291Z,63.69
2023-02-08T05:42:05.486Z,63.48
2023-02-08T05:44:07.619Z,63.87
2023-02-08T05:46:09.832Z,63.16
2023-02-08T05:48:11.734Z,63.42
2023-02-08T05:50:14.872Z,63.35
2023-02-08T05:52:16.834Z,63.16
2023-02-08T05:54:18.875Z,63.72
2023-02-08T05:56:21.421Z,63.65
2023-02-08T05:58:23.438Z,63.05
2023-02-08T06:00:25.548Z,63.57
2023-02-08T06:02:27.576Z,63.08
2023-02-08T06:04:29.634Z,63.93
2023-02-08T06:06:31.663Z,63.32
2023-02-08T06:08:33.995Z,63.67
2023-02-08T06:10:36.328Z,63.71
2023-02-08T06:12:38.194Z,64.24
2023-02-08T06:14:40.196Z,63.91
2023-02-08T06:16:42.372Z,64.37
2023-02-08T06:18:44.402Z,64.17
2023-02-08T06:20:46.295Z,64.28
2023-02-08T06:22:49.620Z,65.16
2023-02-08T06:24:51.622Z,65.15
2023-02-08T06:26:53.597Z,64.78
2023-02-08T06:28:55.668Z,65.52
2023-02-08T06:30:57.656Z,65.29
2023-02-08T06:32:59.621Z,65.21
2023-02-08T06:35:01.591Z,64.69
2023-02-08T06:37:05.654Z,64.79
2023-02-08T06:39:07.610Z,64.90
2023-02-08T06:41:09.792Z,64.79
2023-02-08T06:43:12.087Z,65.03
2023-02-08T06:45:14.239Z,64.85
2023-02-08T06:47:16.573Z,64.89
2023-02-08T06:49:19.004Z,64.96
2023-02-08T06:51:20.988Z,64.92
2023-02-08T06:53:23.152Z,65.32
2023-02-08T06:55:25.196Z,64.83
2023-02-08T06:57:27.133Z,65.47
2023-02-08T06:59:29.214Z,65.27
2023-02-08T07:01:31.236Z,65.17
2023-02-08T07:03:33.282Z,65.59
2023-02-08T07:05:36.136Z,65.04
2023-02-08T07:07:38.084Z,65.24
2023-02-08T07:09:40.391Z,65.49
2023-02-08T07:11:42.400Z,65.65
2023-02-08T07:13:48.278Z,65.63
2023-02-08T07:15:50.390Z,65.42
2023-02-08T07:17:52.485Z,65.94
2023-02-08T07:19:54.664Z,66.25
2023-02-08T07:21:57.415Z,65.88
2023-02-08T07:23:59.445Z,66.32
2023-02-08T07:26:04.887Z,65.91
2023-02-08T07:28:07.155Z,65.76
2023-02-08T07:30:10.171Z,65.70
2023-02-08T07:32:12.456Z,65.47
2023-02-08T07:34:14.653Z,65.30
2023-02-08T07:36:16.831Z,65.80
2023-02-08T07:38:20.707Z,65.63
2023-02-08T07:40:23.181Z,65.24
2023-02-08T07:42:26.556Z,65.54
2023-02-08T07:44:28.725Z,65.53
2023-02-08T07:46:31.076Z,65.50
2023-02-08T07:48:33.406Z,64.92
2023-02-08T07:50:35.661Z,64.85
2023-02-08T07:52:37.788Z,64.77
2023-02-08T07:54:39.933Z,64.56
2023-02-08T07:56:42.035Z,65.04
2023-02-08T07:58:44.341Z,64.32
2023-02-08T08:00:46.430Z,64.88
2023-02-08T08:02:51.161Z,64.33
2023-02-08T08:04:54.759Z,64.57
2023-02-08T08:06:57.088Z,64.17
2023-02-08T08:08:59.239Z,64.87
2023-02-08T08:11:03.723Z,64.71
2023-02-08T08:13:06.487Z,64.07
2023-02-08T08:15:09.057Z,63.89
2023-02-08T08:17:11.317Z,63.54
2023-02-08T08:19:13.487Z,63.90
2023-02-08T08:21:16.996Z,63.47
2023-02-08T08:23:19.922Z,63.45
2023-02-08T08:25:22.675Z,63.99
2023-02-08T08:27:25.093Z,63.31
2023-02-08T08:29:27.507Z,63.27
2023-02-08T08:31:31.159Z,63.48
2023-02-08T08:33:33.979Z,63.41
2023-02-08T08:35:36.813Z,63.84
2023-02-08T08:37:39.732Z,63.78
2023-02-08T08:39:42.566Z,63.21
2023-02-08T08:41:45.103Z,63.25
2023-02-08T08:43:47.673Z,63.24
2023-02-08T08:45:51.597Z,62.78
2023-02-08T08:47:55.428Z,62.56
2023-02-08T08:49:57.897Z,62.83
2023-02-08T08:52:00.435Z,63.14
2023-02-08T08:54:03.677Z,62.98
2023-02-08T08:56:06.685Z,63.44
2023-02-08T08:58:09.140Z,63.15
2023-02-08T09:00:12.936Z,63.36
2023-02-08T09:02:15.744Z,63.01
2023-02-08T09:04:18.617Z,63.29
2023-02-08T09:06:20.840Z,63.36
2023-02-08T09:08:23.500Z,62.86
2023-02-08T09:10:25.900Z,63.92
2023-02-08T09:12:29.025Z,63.71
2023-02-08T09:14:31.580Z,63.03
2023-02-08T09:16:33.980Z,63.76
2023-02-08T09:18:36.876Z,63.80
2023-02-08T09:20:39.729Z,63.50
2023-02-08T09:22:42.106Z,63.18
2023-02-08T09:24:44.240Z,63.13
2023-02-08T09:26:46.613Z,62.94
2023-02-08T09:28:49.178Z,62.86
2023-02-08T09:30:51.416Z,62.30
2023-02-08T09:32:53.955Z,62.29
2023-02-08T09:34:58.058Z,62.06
2023-02-08T09:37:00.209Z,62.32
2023-02-08T09:39:07.744Z,61.97
2023-02-08T09:41:16.400Z,62.39
2023-02-08T09:43:32.217Z,61.39
2023-02-08T09:45:47.891Z,61.56
2023-02-08T09:47:59.645Z,61.74
2023-02-08T09:50:05.251Z,61.74
2023-02-08T09:52:13.861Z,61.95
2023-02-08T09:54:19.972Z,61.20
2023-02-08T09:56:29.804Z,60.92
2023-02-08T09:58:38.392Z,60.52
2023-02-08T10:00:44.985Z,60.55
2023-02-08T10:02:49.193Z,60.84
2023-02-08T10:04:54.939Z,61.02
2023-02-08T10:06:57.408Z,60.72
2023-02-08T10:09:04.859Z,60.63
2023-02-08T10:11:13.175Z,59.31
2023-02-08T10:13:25.688Z,58.40
2023-02-08T10:15:42.290Z,58.45
2023-02-08T10:17:48.281Z,58.60
2023-02-08T10:19:54.988Z,58.51
2023-02-08T10:22:03.367Z,57.85
2023-02-08T10:24:20.250Z,57.54
2023-02-08T10:26:25.313Z,57.27
2023-02-08T10:28:33.861Z,57.56
2023-02-08T10:30:44.986Z,57.23
2023-02-08T10:32:51.068Z,56.59
2023-02-08T10:34:59.352Z,56.79
2023-02-08T10:37:06.489Z,56.30
2023-02-08T10:39:14.852Z,56.29
2023-02-08T10:41:23.948Z,56.41
2023-02-08T10:43:33.023Z,55.69
2023-02-08T10:45:42.220Z,55.66
2023-02-08T10:47:49.483Z,55.11
2023-02-08T10:49:58.795Z,55.67
2023-02-08T10:52:01.255Z,55.20
2023-02-08T10:54:03.634Z,54.67
2023-02-08T10:56:07.254Z,54.69
2023-02-08T10:58:16.982Z,54.04
2023-02-08T11:00:23.556Z,53.89
2023-02-08T11:02:31.889Z,53.56
2023-02-08T11:04:34.155Z,53.78
2023-02-08T11:06:37.842Z,53.16
2023-02-08T11:08:55.566Z,53.68
2023-02-08T11:11:01.393Z,53.54
2023-02-08T11:13:16.075Z,53.40
2023-02-08T11:15:23.552Z,53.05
2023-02-08T11:17:31.735Z,53.90
2023-02-08T11:19:42.983Z,53.74
2023-02-08T11:21:50.916Z,54.02
2023-02-08T11:23:55.814Z,53.65
2023-02-08T11:26:04.252Z,53.74
2023-02-08T11:28:25.829Z,52.75
2023-02-08T11:30:28.020Z,52.37
2023-02-08T11:32:30.331Z,52.66
2023-02-08T11:34:35.571Z,52.53
2023-02-08T11:36:47.286Z,51.72
2023-02-08T11:38:49.570Z,50.00
2023-02-08T11:40:53.776Z,49.82
2023-02-08T11:42:57.032Z,50.50
2023-02-08T11:45:00.292Z,50.60
2023-02-08T11:47:06.215Z,49.84
2023-02-08T11:49:23.657Z,49.84
2023-02-08T11:51:30.419Z,48.45
2023-02-08T11:53:37.909Z,47.53
2023-02-08T11:55:41.085Z,46.00
2023-02-08T11:57:49.644Z,45.48
2023-02-08T12:00:10.216Z,44.19
2023-02-08T12:02:18.759Z,42.62
2023-02-08T12:04:22.778Z,42.11
2023-02-08T12:06:31.240Z,42.45
2023-02-08T12:08:39.773Z,42.44
2023-02-08T12:10:46.451Z,42.29
2023-02-08T12:12:53.576Z,43.68
2023-02-08T12:14:59.307Z,42.77
2023-02-08T12:17:12.349Z,42.44
2023-02-08T12:19:27.612Z,41.94
2023-02-08T12:21:36.229Z,42.18
2023-02-08T12:23:42.917Z,41.91
2023-02-08T12:25:49.901Z,41.84
2023-02-08T12:27:56.926Z,41.04
2023-02-08T12:30:03.957Z,41.15
2023-02-08T12:32:24.919Z,40.38
2023-02-08T12:34:29.956Z,41.36
2023-02-08T12:36:33.233Z,41.89
2023-02-08T12:38:44.728Z,41.83
2023-02-08T12:40:53.324Z,40.77
2023-02-08T12:43:03.990Z,41.20
2023-02-08T12:45:17.828Z,41.75
2023-02-08T12:47:26.261Z,41.84
2023-02-08T12:49:47.210Z,41.32
2023-02-08T12:51:49.466Z,41.71
2023-02-08T12:53:58.063Z,42.17
2023-02-08T12:56:07.144Z,41.98
2023-02-08T12:58:12.724Z,40.50
2023-02-08T13:00:21.204Z,40.88
2023-02-08T13:02:29.835Z,40.66
2023-02-08T13:04:38.769Z,40.81
2023-02-08T13:06:45.249Z,40.55
2023-02-08T13:08:52.701Z,41.46
2023-02-08T13:11:17.864Z,41.41
2023-02-08T13:13:26.805Z,41.85
2023-02-08T13:15:33.633Z,41.80
2023-02-08T13:17:39.751Z,42.02
2023-02-08T13:19:59.790Z,41.89
2023-02-08T13:22:05.929Z,42.05
2023-02-08T13:24:23.408Z,42.12
2023-02-08T13:26:31.778Z,41.49
2023-02-08T13:28:34.735Z,39.13
2023-02-08T13:30:40.286Z,38.06
2023-02-08T13:32:46.989Z,36.02
2023-02-08T13:34:55.604Z,35.84
2023-02-08T13:37:02.195Z,35.71
2023-02-08T13:39:08.348Z,33.31
2023-02-08T13:41:16.613Z,33.98
2023-02-08T13:43:34.734Z,33.84
2023-02-08T13:45:44.449Z,34.08
2023-02-08T13:47:49.569Z,33.22
2023-02-08T13:49:54.162Z,32.27
2023-02-08T13:51:56.402Z,32.42
2023-02-08T13:54:00.755Z,31.95
2023-02-08T13:56:06.022Z,31.86
2023-02-08T13:58:14.644Z,31.93
2023-02-08T14:00:25.192Z,30.96
2023-02-08T14:02:28.658Z,30.83
2023-02-08T14:04:35.099Z,29.91
2023-02-08T14:06:41.413Z,30.47
2023-02-08T14:08:52.370Z,30.10
2023-02-08T14:11:01.275Z,29.86
2023-02-08T14:13:14.276Z,29.66
2023-02-08T14:15:17.172Z,29.53
2023-02-08T14:17:27.815Z,27.89
2023-02-08T14:19:30.916Z,27.55
2023-02-08T14:21:38.612Z,27.66
2023-02-08T14:23:41.204Z,27.87
2023-02-08T14:25:47.604Z,28.65
2023-02-08T14:27:54.839Z,27.98
2023-02-08T14:30:02.872Z,29.06
2023-02-08T14:32:05.940Z,29.72
2023-02-08T14:34:22.787Z,30.24
2023-02-08T14:36:29.966Z,31.02
2023-02-08T14:38:38.364Z,31.38
2023-02-08T14:40:49.091Z,31.81
2023-02-08T14:42:57.616Z,32.29
2023-02-08T14:45:02.082Z,32.92
2023-02-08T14:47:10.690Z,33.49
2023-02-08T14:49:16.194Z,33.96
2023-02-08T14:51:25.342Z,34.99
2023-02-08T14:53:34.874Z,35.46
2023-02-08T14:55:46.045Z,35.84
2023-02-08T14:57:49.333Z,35.97
2023-02-08T14:59:54.357Z,36.41
2023-02-08T15:02:00.864Z,36.21
2023-02-08T15:04:04.079Z,37.03
2023-02-08T15:06:12.640Z,38.36
2023-02-08T15:08:21.896Z,37.92
2023-02-08T15:10:26.376Z,38.49
2023-02-08T15:12:32.786Z,38.80
2023-02-08T15:14:37.135Z,39.15
2023-02-08T15:16:44.124Z,38.91
2023-02-08T15:18:49.449Z,38.84
2023-02-08T15:20:59.655Z,39.17
2023-02-08T15:23:06.687Z,39.80
2023-02-08T15:25:22.302Z,39.62
2023-02-08T15:27:27.732Z,38.25
2023-02-08T15:29:43.986Z,37.54
2023-02-08T15:31:47.845Z,36.72
2023-02-08T15:33:52.857Z,36.89
2023-02-08T15:36:00.488Z,36.41
2023-02-08T15:38:05.917Z,36.64
2023-02-08T15:40:22.923Z,37.16
2023-02-08T15:42:29.339Z,37.30
2023-02-08T15:44:35.183Z,37.71
2023-02-08T15:46:39.212Z,38.86
2023-02-08T15:48:45.028Z,39.01
2023-02-08T15:50:47.686Z,39.35
2023-02-08T15:52:58.177Z,39.16
2023-02-08T15:55:00.618Z,39.51
2023-02-08T15:57:06.947Z,39.82
2023-02-08T15:59:21.348Z,39.80
2023-02-08T16:01:25.741Z,40.33
2023-02-08T16:03:30.030Z,40.31
2023-02-08T16:05:34.061Z,40.68
2023-02-08T16:07:40.153Z,40.52
2023-02-08T16:09:48.047Z,40.60
2023-02-08T16:11:50.933Z,40.93
2023-02-08T16:13:57.805Z,40.56
2023-02-08T16:16:16.985Z,40.93
2023-02-08T16:18:30.287Z,42.27
2023-02-08T16:20:35.549Z,41.91
2023-02-08T16:22:38.221Z,41.92
2023-02-08T16:24:40.757Z,42.55
2023-02-08T16:26:45.365Z,42.81
2023-02-08T16:28:53.991Z,42.94
2023-02-08T16:30:58.740Z,43.23
2023-02-08T16:33:07.509Z,43.21
2023-02-08T16:35:14.064Z,43.66
2023-02-08T16:37:22.960Z,43.26
2023-02-08T16:39:31.663Z,44.19
2023-02-08T16:42:00.889Z,42.94
2023-02-08T16:44:12.396Z,42.80
2023-02-08T16:46:17.239Z,42.72
2023-02-08T16:48:27.759Z,43.42
2023-02-08T16:50:31.831Z,43.05
2023-02-08T16:52:35.094Z,44.07
2023-02-08T16:54:37.739Z,43.77
2023-02-08T16:56:42.139Z,43.65
2023-02-08T16:58:44.788Z,44.29
2023-02-08T17:00:47.416Z,43.84
2023-02-08T17:02:51.207Z,43.72
2023-02-08T17:04:55.177Z,44.01
2023-02-08T17:06:57.656Z,43.49
2023-02-08T17:09:01.672Z,42.82
2023-02-08T17:11:04.316Z,42.94
2023-02-08T17:13:19.937Z,44.10
2023-02-08T17:15:25.273Z,43.91
2023-02-08T17:17:28.239Z,44.53
2023-02-08T17:19:30.870Z,45.16
2023-02-08T17:21:34.162Z,44.33
2023-02-08T17:23:36.871Z,45.46
2023-02-08T17:25:39.895Z,45.21
2023-02-08T17:27:42.469Z,45.34
2023-02-08T17:29:45.206Z,45.88
2023-02-08T17:31:48.692Z,45.67
2023-02-08T17:33:51.662Z,45.96
2023-02-08T17:35:54.377Z,45.61
2023-02-08T17:37:58.878Z,46.34
2023-02-08T17:40:01.356Z,45.64
2023-02-08T17:42:04.054Z,46.61
2023-02-08T17:44:07.493Z,46.20
2023-02-08T17:46:16.266Z,46.81
2023-02-08T17:48:19.743Z,46.95
2023-02-08T17:50:23.926Z,47.37
2023-02-08T17:52:26.560Z,47.37
2023-02-08T17:54:29.117Z,47.56
2023-02-08T17:56:35.756Z,47.99
2023-02-08T17:58:39.204Z,48.06
2023-02-08T18:00:42.433Z,47.95
2023-02-08T18:02:47.768Z,47.98
2023-02-08T18:04:50.389Z,48.03
2023-02-08T18:06:53.047Z,47.83
2023-02-08T18:08:56.157Z,48.90
2023-02-08T18:11:04.332Z,48.44
2023-02-08T18:13:07.220Z,48.22
2023-02-08T18:15:13.991Z,48.31
2023-02-08T18:17:16.538Z,48.61
2023-02-08T18:19:19.852Z,48.32
2023-02-08T18:21:26.021Z,48.66
2023-02-08T18:23:29.096Z,49.45
2023-02-08T18:25:32.391Z,49.52
2023-02-08T18:27:34.947Z,49.68
2023-02-08T18:29:37.591Z,49.24
2023-02-08T18:31:41.571Z,50.03
2023-02-08T18:33:44.787Z,50.12
2023-02-08T18:35:49.579Z,50.63
2023-02-08T18:37:53.778Z,50.34
2023-02-08T18:39:56.219Z,50.78
2023-02-08T18:41:58.796Z,50.82
2023-02-08T18:44:02.788Z,51.39
2023-02-08T18:46:10.222Z,51.18
2023-02-08T18:48:13.658Z,51.29
2023-02-08T18:50:16.461Z,51.83
2023-02-08T18:52:18.780Z,51.87
2023-02-08T18:54:21.989Z,52.07
2023-02-08T18:56:26.837Z,52.14
2023-02-08T18:58:29.824Z,52.14
2023-02-08T19:00:32.414Z,52.42
2023-02-08T19:02:35.926Z,52.22
2023-02-08T19:04:39.894Z,52.22
2023-02-08T19:06:42.373Z,52.20
2023-02-08T19:08:45.937Z,52.07
2023-02-08T19:10:48.209Z,52.08
2023-02-08T19:12:50.943Z,52.60
2023-02-08T19:14:53.196Z,52.47
2023-02-08T19:16:56.295Z,53.05
2023-02-08T19:19:01.335Z,52.98
2023-02-08T19:21:06.366Z,52.86
2023-02-08T19:23:08.854Z,52.82
2023-02-08T19:25:11.326Z,53.74
2023-02-08T19:27:13.901Z,53.86
2023-02-08T19:29:22.243Z,53.93
2023-02-08T19:31:26.458Z,54.21
2023-02-08T19:33:28.991Z,54.42
2023-02-08T19:35:31.334Z,54.59
2023-02-08T19:37:33.733Z,54.72
2023-02-08T19:39:35.961Z,55.14
2023-02-08T19:41:39.680Z,54.66
2023-02-08T19:43:41.996Z,54.67
2023-02-08T19:45:45.319Z,54.49
2023-02-08T19:47:51.672Z,54.94
2023-02-08T19:49:55.234Z,54.99
2023-02-08T19:51:57.645Z,54.76
2023-02-08T19:54:01.164Z,54.91
2023-02-08T19:56:06.781Z,54.66
2023-02-08T19:58:10.811Z,54.66
2023-02-08T20:00:23.493Z,54.60
2023-02-08T20:02:27.817Z,54.77
2023-02-08T20:04:30.367Z,55.72
2023-02-08T20:06:36.063Z,55.73
2023-02-08T20:08:38.908Z,55.74
2023-02-08T20:10:42.664Z,55.78
2023-02-08T20:12:45.384Z,56.14
2023-02-08T20:14:48.632Z,56.02
2023-02-08T20:16:51.707Z,56.20
2023-02-08T20:18:56.354Z,56.69
2023-02-08T20:21:02.323Z,56.86
2023-02-08T20:23:14.091Z,57.21
2023-02-08T20:25:20.746Z,56.64
2023-02-08T20:27:23.883Z,56.84
2023-02-08T20:29:28.224Z,56.91
2023-02-08T20:31:33.908Z,56.69
2023-02-08T20:33:36.337Z,56.83
2023-02-08T20:35:38.660Z,56.78
2023-02-08T20:37:41.870Z,56.39
2023-02-08T20:39:44.076Z,56.13
2023-02-08T20:41:47.647Z,56.32
2023-02-08T20:43:50.348Z,55.84
2023-02-08T20:45:52.601Z,56.29
2023-02-08T20:47:55.089Z,56.38
2023-02-08T20:49:58.436Z,56.59
2023-02-08T20:52:00.902Z,56.87
2023-02-08T20:54:04.493Z,57.03
2023-02-08T20:56:09.691Z,57.04
2023-02-08T20:58:11.750Z,56.92
2023-02-08T21:00:14.774Z,57.03
2023-02-08T21:02:24.589Z,57.17
2023-02-08T21:04:27.467Z,57.39
2023-02-08T21:06:34.121Z,57.72
2023-02-08T21:08:36.375Z,57.91
2023-02-08T21:10:38.665Z,57.93
2023-02-08T21:12:40.839Z,58.78
2023-02-08T21:14:44.749Z,58.40
2023-02-08T21:16:49.053Z,58.46
2023-02-08T21:18:51.210Z,58.27
2023-02-08T21:20:54.067Z,58.51
2023-02-08T21:22:56.540Z,58.31
2023-02-08T21:24:58.701Z,58.04
2023-02-08T21:27:01.610Z,57.81
2023-02-08T21:29:06.615Z,57.54
2023-02-08T21:31:13.270Z,57.99
2023-02-08T21:33:16.504Z,57.89
2023-02-08T21:35:21.003Z,57.74
2023-02-08T21:37:24.552Z,57.54
2023-02-08T21:39:27.175Z,57.51
2023-02-08T21:41:32.797Z,57.54
2023-02-08T21:43:36.622Z,57.54
2023-02-08T21:45:39.590Z,57.58
2023-02-08T21:47:42.286Z,57.34
2023-02-08T21:49:47.617Z,57.29
2023-02-08T21:51:52.889Z,57.79
2023-02-08T21:53:58.209Z,57.55
2023-02-08T21:56:00.449Z,57.67
2023-02-08T21:58:02.769Z,57.84
2023-02-08T22:00:08.730Z,58.06
2023-02-08T22:02:16.425Z,57.68
2023-02-08T22:04:18.470Z,58.09
2023-02-08T22:06:20.540Z,58.51
2023-02-08T22:08:22.696Z,57.90
2023-02-08T22:10:27.500Z,58.38
2023-02-08T22:12:29.566Z,58.18
2023-02-08T22:14:35.284Z,58.25
2023-02-08T22:16:37.460Z,58.17
2023-02-08T22:18:41.542Z,57.98
2023-02-08T22:20:45.126Z,58.61
2023-02-08T22:22:47.396Z,58.79
2023-02-08T22:24:49.435Z,58.58
2023-02-08T22:26:51.402Z,59.18
2023-02-08T22:28:54.053Z,59.24
2023-02-08T22:30:56.157Z,59.21
2023-02-08T22:32:58.213Z,59.40
2023-02-08T22:35:00.310Z,59.56
2023-02-08T22:37:04.362Z,59.61
2023-02-08T22:39:07.249Z,59.41
2023-02-08T22:41:11.271Z,59.42
2023-02-08T22:43:13.339Z,59.68
2023-02-08T22:45:15.384Z,59.53
2023-02-08T22:47:17.425Z,59.39
2023-02-08T22:49:19.564Z,59.58
2023-02-08T22:51:23.697Z,59.51
2023-02-08T22:53:26.644Z,59.61
2023-02-08T22:55:28.891Z,59.53
2023-02-08T22:57:32.232Z,59.98
2023-02-08T22:59:34.249Z,59.54
2023-02-08T23:01:36.989Z,59.73
2023-02-08T23:03:39.379Z,60.31
2023-02-08T23:05:43.024Z,60.33
2023-02-08T23:07:45.179Z,60.21
2023-02-08T23:09:47.339Z,59.86
2023-02-08T23:11:49.369Z,60.39
2023-02-08T23:13:51.375Z,60.28
2023-02-08T23:15:53.384Z,60.68
2023-02-08T23:17:55.707Z,60.21
2023-02-08T23:19:57.785Z,60.56
2023-02-08T23:22:00.565Z,61.18
2023-02-08T23:24:02.592Z,61.07
2023-02-08T23:26:07.534Z,61.39
2023-02-08T23:28:11.434Z,60.77
2023-02-08T23:30:13.943Z,60.97
2023-02-08T23:32:15.920Z,60.85
2023-02-08T23:34:19.130Z,60.81
2023-02-08T23:36:23.425Z,61.13
2023-02-08T23:38:25.711Z,61.17
2023-02-08T23:40:27.707Z,60.84
2023-02-08T23:42:29.659Z,61.14
2023-02-08T23:44:31.751Z,61.02
2023-02-08T23:46:33.841Z,61.17
2023-02-08T23:48:38.431Z,60.78
2023-02-08T23:50:41.275Z,61.13
2023-02-08T23:52:43.195Z,61.18
2023-02-08T23:54:45.358Z,61.32
2023-02-08T23:56:47.409Z,61.56
2023-02-08T23:58:51.727Z,61.16
